Time;durP1;ratioP1;P1;durP2;ratioP2;P2;SDS_P1;SDS_P2;PMS_P1;PMS_P2;Temp;Humidity;BMP_temperature;BMP_pressure;BME280_temperature;BME280_humidity;BME280_pressure;Samples;Min_cycle;Max_cycle;Signal;HPM_P1;HPM_P2
2023/01/02 00:01:03;;;;;;;;;;;;;;;17.89;nan;101720.16;5035771;28;20481;-36
2023/01/02 00:03:29;;;;;;;;;;;;;;;17.89;nan;101724.78;5031645;28;20057;-36
2023/01/02 00:05:54;;;;;;;;;;;;;;;17.89;nan;101727.47;5027430;28;20457;-36
2023/01/02 00:08:19;;;;;;;;;;;;;;;17.89;nan;101719.34;5025693;28;19925;-35
2023/01/02 00:10:45;;;;;;;;;;;;;;;17.88;nan;101704.16;5025268;28;19959;-36
2023/01/02 00:13:10;;;;;;;;;;;;;;;17.89;nan;101698.47;5032149;28;19999;-36
2023/01/02 00:15:36;;;;;;;;;;;;;;;17.90;nan;101696.56;5045695;28;19920;-36
2023/01/02 00:18:01;;;;;;;;;;;;;;;17.89;nan;101698.47;5050483;28;19963;-36
2023/01/02 00:20:26;;;;;;;;;;;;;;;17.89;nan;101689.53;5050348;28;19923;-36
2023/01/02 00:22:52;;;;;;;;;;;;;;;17.89;nan;101689.53;5048165;28;19920;-36
2023/01/02 00:25:17;;;;;;;;;;;;;;;17.92;nan;101694.41;5046874;28;19917;-36
2023/01/02 00:27:42;;;;;;;;;;;;;;;17.92;nan;101680.84;5053266;28;19927;-35
2023/01/02 00:30:08;;;;;;;;;;;;;;;17.93;nan;101691.41;5043949;28;19976;-35
2023/01/02 00:32:33;;;;;;;;;;;;;;;17.94;nan;101687.59;5049609;28;20014;-35
2023/01/02 00:34:59;;;;;;;;;;;;;;;17.96;nan;101677.34;5051267;28;19929;-36
2023/01/02 00:37:24;;;;;;;;;;;;;;;17.98;nan;101669.72;5048587;28;19970;-36
2023/01/02 00:39:49;;;;;;;;;;;;;;;17.99;nan;101670.53;5048202;28;19916;-36
2023/01/02 00:42:15;;;;;;;;;;;;;;;17.98;nan;101682.47;5045737;28;20405;-35
2023/01/02 00:44:40;;;;;;;;;;;;;;;18.00;nan;101683.00;5051477;28;20389;-35
2023/01/02 00:47:05;;;;;;;;;;;;;;;18.00;nan;101670.25;5052086;28;19928;-36
2023/01/02 00:49:31;;;;;;;;;;;;;;;17.98;nan;101671.63;5054557;28;19928;-35
2023/01/02 00:51:56;;;;;;;;;;;;;;;17.96;nan;101663.78;5050868;28;20400;-36
2023/01/02 00:54:21;;;;;;;;;;;;;;;17.97;nan;101661.88;5051541;28;20453;-35
2023/01/02 00:56:47;;;;;;;;;;;;;;;17.98;nan;101664.31;5052033;28;20348;-35
2023/01/02 00:59:12;;;;;;;;;;;;;;;18.00;nan;101661.31;5046628;28;20323;-35
2023/01/02 01:01:37;;;;;;;;;;;;;;;18.00;nan;101664.03;5051952;28;20378;-35
2023/01/02 01:04:03;;;;;;;;;;;;;;;17.99;nan;101663.22;5047393;28;19935;-36
2023/01/02 01:06:28;;;;;;;;;;;;;;;17.95;nan;101659.41;5052057;28;20022;-35
2023/01/02 01:08:54;;;;;;;;;;;;;;;17.97;nan;101659.16;5049938;28;20371;-36
2023/01/02 01:11:19;;;;;;;;;;;;;;;17.95;nan;101664.03;5049666;28;20329;-35
2023/01/02 01:13:44;;;;;;;;;;;;;;;17.97;nan;101664.59;5047289;28;20432;-35
2023/01/02 01:16:11;;;;;;;;;;;;;;;17.98;nan;101663.50;5045064;28;19932;-36
2023/01/02 01:18:37;;;;;;;;;;;;;;;17.99;nan;101656.97;5045442;28;20185;-36
2023/01/02 01:21:09;;;;;;;;;;;;;;;18.00;nan;101656.72;5041676;28;19921;-36
2023/01/02 01:23:35;;;;;;;;;;;;;;;18.01;nan;101654.81;5034423;28;21877;-36
2023/01/02 01:26:08;;;;;;;;;;;;;;;18.01;nan;101642.06;5029444;28;19931;-36
2023/01/02 01:28:33;;;;;;;;;;;;;;;17.99;nan;101627.97;5034844;28;19924;-36
2023/01/02 01:31:02;;;;;;;;;;;;;;;17.99;nan;101619.03;5042875;28;19921;-36
2023/01/02 01:33:29;;;;;;;;;;;;;;;18.00;nan;101620.66;5044577;28;20341;-36
2023/01/02 01:35:54;;;;;;;;;;;;;;;18.01;nan;101617.66;5045695;28;19928;-36
2023/01/02 01:38:19;;;;;;;;;;;;;;;18.03;nan;101612.75;5043556;28;20278;-36
2023/01/02 01:40:45;;;;;;;;;;;;;;;18.04;nan;101617.09;5049814;28;20633;-36
2023/01/02 01:43:13;;;;;;;;;;;;;;;18.02;nan;101616.56;5046604;28;20485;-36
2023/01/02 01:45:41;;;;;;;;;;;;;;;18.01;nan;101619.56;5053719;28;20287;-35
2023/01/02 01:48:11;;;;;;;;;;;;;;;18.00;nan;101617.94;5063517;22;20297;-36
2023/01/02 01:50:37;;;;;;;;;;;;;;;17.98;nan;101610.06;5045946;28;20059;-36
2023/01/02 01:53:06;;;;;;;;;;;;;;;17.98;nan;101603.84;5044517;28;19931;-36
2023/01/02 01:55:33;;;;;;;;;;;;;;;17.99;nan;101600.84;5045189;28;19924;-35
2023/01/02 01:58:04;;;;;;;;;;;;;;;18.02;nan;101596.78;5042884;28;19918;-36
2023/01/02 02:00:30;;;;;;;;;;;;;;;18.02;nan;101596.78;5044142;28;19924;-36
2023/01/02 02:03:00;;;;;;;;;;;;;;;18.00;nan;101596.25;5045206;28;20290;-36
2023/01/02 02:05:28;;;;;;;;;;;;;;;17.97;nan;101591.38;5045069;28;19917;-36
2023/01/02 02:08:01;;;;;;;;;;;;;;;17.93;nan;101591.09;5045964;28;19942;-36
2023/01/02 02:10:26;;;;;;;;;;;;;;;17.93;nan;101590.28;5044516;28;19925;-36
2023/01/02 02:12:51;;;;;;;;;;;;;;;17.89;nan;101586.50;5039085;28;20516;-36
2023/01/02 02:15:19;;;;;;;;;;;;;;;17.86;nan;101589.78;5045140;28;20279;-35
2023/01/02 02:17:54;;;;;;;;;;;;;;;17.80;nan;101580.84;5046635;28;19916;-36
2023/01/02 02:20:25;;;;;;;;;;;;;;;17.73;nan;101575.72;5044640;28;19924;-35
2023/01/02 02:22:53;;;;;;;;;;;;;;;17.70;nan;101578.97;5045906;28;19921;-35
2023/01/02 02:25:37;;;;;;;;;;;;;;;17.67;nan;101576.78;5043810;28;19924;-35
2023/01/02 02:28:02;;;;;;;;;;;;;;;17.64;nan;101566.50;5042889;28;19967;-36
2023/01/02 02:30:37;;;;;;;;;;;;;;;17.59;nan;101584.66;5045555;28;19971;-35
2023/01/02 02:33:02;;;;;;;;;;;;;;;17.59;nan;101573.81;5038010;28;19924;-35
2023/01/02 02:35:32;;;;;;;;;;;;;;;17.58;nan;101572.19;5045824;28;20356;-35
2023/01/02 02:38:21;;;;;;;;;;;;;;;17.59;nan;101576.53;5028640;28;19971;-36
2023/01/02 02:40:56;;;;;;;;;;;;;;;17.59;nan;101574.63;5035550;28;19924;-36
2023/01/02 02:43:34;;;;;;;;;;;;;;;17.63;nan;101570.31;5046713;28;19920;-35
2023/01/02 02:46:18;;;;;;;;;;;;;;;17.68;nan;101562.19;5046437;28;20308;-35
2023/01/02 02:48:53;;;;;;;;;;;;;;;17.72;nan;101557.00;5044071;28;20267;-36
2023/01/02 02:51:27;;;;;;;;;;;;;;;17.71;nan;101556.22;5045397;28;20230;-35
2023/01/02 02:54:02;;;;;;;;;;;;;;;17.71;nan;101534.53;5043817;28;20023;-35
2023/01/02 02:56:27;;;;;;;;;;;;;;;17.68;nan;101524.25;5044025;28;19924;-35
2023/01/02 02:58:53;;;;;;;;;;;;;;;17.67;nan;101522.59;5045122;28;19920;-35
2023/01/02 03:01:18;;;;;;;;;;;;;;;17.66;nan;101515.56;5045892;28;19955;-35
2023/01/02 03:03:43;;;;;;;;;;;;;;;17.66;nan;101515.56;5045158;28;19970;-35
2023/01/02 03:06:15;;;;;;;;;;;;;;;17.63;nan;101510.69;5045962;28;19917;-35
2023/01/02 03:08:49;;;;;;;;;;;;;;;17.60;nan;101481.44;5045130;28;20003;-35
2023/01/02 03:11:15;;;;;;;;;;;;;;;17.58;nan;101480.06;5043088;28;19935;-35
2023/01/02 03:14:10;;;;;;;;;;;;;;;17.55;nan;101476.03;5044019;28;19925;-35
2023/01/02 03:16:39;;;;;;;;;;;;;;;17.53;nan;101456.53;5029484;28;20000;-35
2023/01/02 03:19:10;;;;;;;;;;;;;;;17.54;nan;101452.72;5042816;28;19924;-35
2023/01/02 03:21:36;;;;;;;;;;;;;;;17.56;nan;101461.38;5041874;28;19970;-35
2023/01/02 03:24:04;;;;;;;;;;;;;;;17.53;nan;101440.25;5043581;28;19924;-35
2023/01/02 03:26:32;;;;;;;;;;;;;;;17.49;nan;101434.59;5042455;28;20014;-35
2023/01/02 03:29:01;;;;;;;;;;;;;;;17.51;nan;101431.59;5030043;28;20394;-35
2023/01/02 03:31:29;;;;;;;;;;;;;;;17.57;nan;101437.81;5037885;28;19925;-36
2023/01/02 03:33:57;;;;;;;;;;;;;;;17.61;nan;101431.56;5045214;28;19925;-36
2023/01/02 03:36:25;;;;;;;;;;;;;;;17.64;nan;101425.59;5044148;28;19917;-35
2023/01/02 03:38:54;;;;;;;;;;;;;;;17.67;nan;101433.16;5044210;28;20341;-35
2023/01/02 03:41:24;;;;;;;;;;;;;;;17.71;nan;101419.88;5040181;28;19934;-37
2023/01/02 03:43:51;;;;;;;;;;;;;;;17.74;nan;101424.75;5041109;28;20364;-35
2023/01/02 03:46:31;;;;;;;;;;;;;;;17.79;nan;101425.53;5042144;28;19925;-35
2023/01/02 03:48:56;;;;;;;;;;;;;;;17.80;nan;101429.06;5040748;28;19917;-35
2023/01/02 03:51:22;;;;;;;;;;;;;;;17.79;nan;101417.41;5042796;28;19924;-35
2023/01/02 03:53:49;;;;;;;;;;;;;;;17.82;nan;101432.31;5045312;28;20378;-35
2023/01/02 03:56:36;;;;;;;;;;;;;;;17.83;nan;101417.66;5043117;28;19982;-35
2023/01/02 03:59:28;;;;;;;;;;;;;;;17.76;nan;101423.38;5042115;28;19924;-36
2023/01/02 04:01:53;;;;;;;;;;;;;;;17.72;nan;101430.44;5039460;28;19939;-36
2023/01/02 04:04:25;;;;;;;;;;;;;;;17.71;nan;101426.13;5043708;28;20408;-35
2023/01/02 04:06:54;;;;;;;;;;;;;;;17.70;nan;101402.81;5042608;28;19927;-35
2023/01/02 04:09:23;;;;;;;;;;;;;;;17.69;nan;101395.78;5041251;28;19916;-35
2023/01/02 04:11:51;;;;;;;;;;;;;;;17.68;nan;101396.88;5043757;28;19966;-36
2023/01/02 04:14:18;;;;;;;;;;;;;;;17.69;nan;101394.97;5044797;28;19932;-35
2023/01/02 04:16:44;;;;;;;;;;;;;;;17.65;nan;101391.97;5043171;28;20016;-35
2023/01/02 04:19:13;;;;;;;;;;;;;;;17.63;nan;101385.22;5044128;28;20305;-35
2023/01/02 04:21:40;;;;;;;;;;;;;;;17.63;nan;101385.22;5043743;28;19916;-36
2023/01/02 04:24:16;;;;;;;;;;;;;;;17.62;nan;101383.59;5042799;28;19973;-36
2023/01/02 04:26:45;;;;;;;;;;;;;;;17.60;nan;101394.72;5044245;28;19974;-36
2023/01/02 04:29:10;;;;;;;;;;;;;;;17.60;nan;101383.88;5042490;28;19917;-42
2023/01/02 04:31:36;;;;;;;;;;;;;;;17.58;nan;101377.09;5035590;28;19925;-36
2023/01/02 04:34:03;;;;;;;;;;;;;;;17.57;nan;101389.03;5022616;28;19928;-35
2023/01/02 04:36:28;;;;;;;;;;;;;;;17.48;nan;101378.78;5023523;28;20412;-36
2023/01/02 04:38:54;;;;;;;;;;;;;;;17.47;nan;101376.38;5023713;28;20280;-36
2023/01/02 04:41:27;;;;;;;;;;;;;;;17.47;nan;101376.38;5024121;28;19916;-35
2023/01/02 04:43:53;;;;;;;;;;;;;;;17.50;nan;101386.63;5027660;28;19959;-36
2023/01/02 04:46:18;;;;;;;;;;;;;;;17.45;nan;101381.25;5023368;28;19927;-36
2023/01/02 04:48:44;;;;;;;;;;;;;;;17.44;nan;101377.75;5022096;28;19925;-35
2023/01/02 04:51:09;;;;;;;;;;;;;;;17.45;nan;101375.84;5030835;28;19932;-35
2023/01/02 04:53:34;;;;;;;;;;;;;;;17.49;nan;101371.47;5029303;28;19927;-35
2023/01/02 04:56:00;;;;;;;;;;;;;;;17.50;nan;101371.19;5026365;28;19921;-35
2023/01/02 04:58:26;;;;;;;;;;;;;;;17.53;nan;101369.81;5024419;28;19916;-36
2023/01/02 05:00:52;;;;;;;;;;;;;;;17.55;nan;101362.22;5025221;28;20374;-35
2023/01/02 05:03:17;;;;;;;;;;;;;;;17.60;nan;101364.13;5027378;28;19925;-35
2023/01/02 05:05:43;;;;;;;;;;;;;;;17.64;nan;101355.13;5032321;28;19971;-34
2023/01/02 05:08:08;;;;;;;;;;;;;;;17.69;nan;101355.13;5030935;28;19971;-35
2023/01/02 05:10:33;;;;;;;;;;;;;;;17.70;nan;101348.63;5025736;28;19931;-35
2023/01/02 05:12:59;;;;;;;;;;;;;;;17.73;nan;101342.63;5031423;28;19921;-35
2023/01/02 05:15:24;;;;;;;;;;;;;;;17.76;nan;101342.06;5034124;28;21760;-35
2023/01/02 05:17:50;;;;;;;;;;;;;;;17.79;nan;101340.72;5032661;28;19928;-35
2023/01/02 05:20:15;;;;;;;;;;;;;;;17.81;nan;101357.50;5031840;28;19932;-35
2023/01/02 05:25:26;;;;;;;;;;;;;;;17.85;nan;101363.16;5028481;28;19931;-35
2023/01/02 05:27:53;;;;;;;;;;;;;;;17.84;nan;101351.50;5041554;28;20320;-35
2023/01/02 05:30:19;;;;;;;;;;;;;;;17.84;nan;101356.13;5045548;28;20118;-35
2023/01/02 05:32:44;;;;;;;;;;;;;;;17.86;nan;101352.03;5046428;28;19921;-35
2023/01/02 05:35:09;;;;;;;;;;;;;;;17.86;nan;101346.63;5045236;28;19921;-35
2023/01/02 05:37:34;;;;;;;;;;;;;;;17.91;nan;101351.19;5045885;28;19927;-35
2023/01/02 05:40:00;;;;;;;;;;;;;;;17.93;nan;101338.16;5044547;28;19921;-35
2023/01/02 05:42:25;;;;;;;;;;;;;;;17.96;nan;101345.75;5045570;28;19917;-35
2023/01/02 05:44:51;;;;;;;;;;;;;;;17.98;nan;101346.28;5045275;28;19921;-35
2023/01/02 05:47:16;;;;;;;;;;;;;;;18.03;nan;101340.78;5046043;28;19925;-35
2023/01/02 05:49:42;;;;;;;;;;;;;;;18.06;nan;101345.66;5046989;28;19916;-35
2023/01/02 05:52:07;;;;;;;;;;;;;;;18.09;nan;101345.06;5046769;28;19917;-36
2023/01/02 05:54:32;;;;;;;;;;;;;;;18.11;nan;101348.31;5045254;28;19927;-36
2023/01/02 05:56:58;;;;;;;;;;;;;;;18.16;nan;101348.28;5040535;28;19924;-35
2023/01/02 05:59:23;;;;;;;;;;;;;;;18.20;nan;101340.38;5026944;28;19927;-35
2023/01/02 06:01:48;;;;;;;;;;;;;;;18.23;nan;101342.53;5030256;28;19916;-35
2023/01/02 06:04:14;;;;;;;;;;;;;;;18.23;nan;101335.19;5032924;28;19925;-35
2023/01/02 06:06:39;;;;;;;;;;;;;;;18.25;nan;101324.06;5027159;28;19916;-35
2023/01/02 06:09:05;;;;;;;;;;;;;;;18.28;nan;101329.72;5035273;28;19939;-35
2023/01/02 06:11:31;;;;;;;;;;;;;;;18.27;nan;101330.81;5033032;28;19920;-35
2023/01/02 06:13:56;;;;;;;;;;;;;;;18.27;nan;101336.25;5034788;28;19979;-36
2023/01/02 06:16:22;;;;;;;;;;;;;;;18.33;nan;101345.16;5039344;28;20267;-35
2023/01/02 06:18:48;;;;;;;;;;;;;;;18.35;nan;101338.34;5028987;28;19928;-35
2023/01/02 06:21:15;;;;;;;;;;;;;;;18.37;nan;101340.78;5033354;28;19946;-35
2023/01/02 06:23:40;;;;;;;;;;;;;;;18.35;nan;101338.34;5038885;28;19923;-35
2023/01/02 06:26:16;;;;;;;;;;;;;;;18.39;nan;101335.88;5038955;28;19925;-35
2023/01/02 06:28:42;;;;;;;;;;;;;;;18.38;nan;101340.50;5040123;28;20051;-35
2023/01/02 06:31:09;;;;;;;;;;;;;;;18.42;nan;101338.81;5043412;28;20461;-35
2023/01/02 06:33:35;;;;;;;;;;;;;;;18.42;nan;101349.66;5037354;28;20356;-35
2023/01/02 06:36:03;;;;;;;;;;;;;;;18.46;nan;101351.81;5030695;28;21362;-35
2023/01/02 06:38:28;;;;;;;;;;;;;;;18.41;nan;101345.34;5035543;28;19921;-35
2023/01/02 06:40:55;;;;;;;;;;;;;;;18.41;nan;101347.25;5036147;28;19923;-36
2023/01/02 06:43:21;;;;;;;;;;;;;;;18.41;nan;101349.97;5035317;28;19921;-35
2023/01/02 06:45:46;;;;;;;;;;;;;;;18.41;nan;101342.63;5036430;28;19963;-35
2023/01/02 06:48:11;;;;;;;;;;;;;;;18.45;nan;101344.75;5031925;28;20279;-35
2023/01/02 06:50:37;;;;;;;;;;;;;;;18.43;nan;101340.44;5036509;28;20012;-35
2023/01/02 06:53:02;;;;;;;;;;;;;;;18.44;nan;101324.97;5033543;28;20019;-36
2023/01/02 06:55:27;;;;;;;;;;;;;;;18.48;nan;101331.44;5038408;28;19967;-36
2023/01/02 06:57:53;;;;;;;;;;;;;;;18.48;nan;101325.19;5034376;28;19956;-35
2023/01/02 07:00:18;;;;;;;;;;;;;;;18.49;nan;101326.81;5040641;28;19952;-36
2023/01/02 07:02:43;;;;;;;;;;;;;;;18.53;nan;101330.59;5032343;28;20426;-36
2023/01/02 07:05:09;;;;;;;;;;;;;;;18.52;nan;101316.22;5034382;28;20062;-36
2023/01/02 07:07:35;;;;;;;;;;;;;;;18.52;nan;101320.84;5033255;28;19921;-35
2023/01/02 07:10:00;;;;;;;;;;;;;;;18.52;nan;101334.41;5037617;28;19917;-36
2023/01/02 07:12:26;;;;;;;;;;;;;;;18.52;nan;101324.34;5041455;28;20535;-36
2023/01/02 07:14:51;;;;;;;;;;;;;;;18.47;nan;101332.53;5041312;28;19927;-35
2023/01/02 07:17:16;;;;;;;;;;;;;;;18.46;nan;101327.38;5040996;28;20019;-35
2023/01/02 07:19:42;;;;;;;;;;;;;;;18.45;nan;101331.19;5041796;28;19924;-35
2023/01/02 07:22:07;;;;;;;;;;;;;;;18.40;nan;101335.59;5043071;28;20301;-35
2023/01/02 07:24:32;;;;;;;;;;;;;;;18.38;nan;101337.78;5041851;28;19939;-35
2023/01/02 07:26:58;;;;;;;;;;;;;;;18.37;nan;101341.59;5043708;28;19968;-35
2023/01/02 07:29:23;;;;;;;;;;;;;;;18.37;nan;101338.88;5041094;28;19986;-36
2023/01/02 07:31:48;;;;;;;;;;;;;;;18.36;nan;101339.97;5044930;28;19920;-35
2023/01/02 07:34:14;;;;;;;;;;;;;;;18.36;nan;101339.97;5039887;28;20696;-35
2023/01/02 07:36:39;;;;;;;;;;;;;;;18.36;nan;101342.69;5042839;28;20339;-35
2023/01/02 07:39:04;;;;;;;;;;;;;;;18.34;nan;101358.44;5038801;28;19947;-35
2023/01/02 07:41:30;;;;;;;;;;;;;;;18.36;nan;101355.44;5039519;28;19921;-36
2023/01/02 07:43:55;;;;;;;;;;;;;;;18.36;nan;101350.00;5040715;28;20282;-36
2023/01/02 07:46:21;;;;;;;;;;;;;;;18.30;nan;101338.38;5038976;28;20275;-35
2023/01/02 07:48:46;;;;;;;;;;;;;;;18.35;nan;101351.91;5048531;22;20044;-38
2023/01/02 07:51:12;;;;;;;;;;;;;;;18.35;nan;101354.63;5019618;28;20003;-35
2023/01/02 07:53:38;;;;;;;;;;;;;;;18.34;nan;101360.34;5027250;28;20279;-35
2023/01/02 07:56:04;;;;;;;;;;;;;;;18.39;nan;101352.16;5020102;28;20295;-38
2023/01/02 07:58:29;;;;;;;;;;;;;;;18.42;nan;101354.28;5019233;28;19917;-35
2023/01/02 08:00:55;;;;;;;;;;;;;;;18.41;nan;101352.66;5020454;28;20055;-35
2023/01/02 08:03:21;;;;;;;;;;;;;;;18.38;nan;101350.53;5022320;28;19927;-36
2023/01/02 08:05:46;;;;;;;;;;;;;;;18.37;nan;101352.44;5030507;28;19913;-35
2023/01/02 08:08:12;;;;;;;;;;;;;;;18.43;nan;101354.00;5027864;28;19924;-34
2023/01/02 08:10:38;;;;;;;;;;;;;;;18.43;nan;101362.13;5022114;28;19952;-34
2023/01/02 08:13:04;;;;;;;;;;;;;;;18.38;nan;101364.91;5024721;28;19921;-36
2023/01/02 08:15:29;;;;;;;;;;;;;;;18.39;nan;101361.09;5028549;28;20402;-36
2023/01/02 08:17:55;;;;;;;;;;;;;;;18.46;nan;101346.38;5020951;28;19979;-36
2023/01/02 08:20:20;;;;;;;;;;;;;;;18.45;nan;101336.63;5023326;28;19975;-34
2023/01/02 08:22:45;;;;;;;;;;;;;;;18.43;nan;101335.00;5024573;28;20294;-34
2023/01/02 08:25:11;;;;;;;;;;;;;;;18.52;nan;101331.69;5021080;28;20597;-35
2023/01/02 08:27:36;;;;;;;;;;;;;;;18.56;nan;101333.53;5018091;28;20011;-34
2023/01/02 08:30:02;;;;;;;;;;;;;;;18.59;nan;101343.81;5021469;28;19917;-34
2023/01/02 08:32:27;;;;;;;;;;;;;;;18.68;nan;101342.13;5025892;28;19921;-35
2023/01/02 08:34:53;;;;;;;;;;;;;;;18.69;nan;101348.38;5023925;28;19995;-34
2023/01/02 08:37:19;;;;;;;;;;;;;;;18.67;nan;101356.81;5026642;28;19932;-37
2023/01/02 08:39:44;;;;;;;;;;;;;;;18.69;nan;101351.91;5032095;28;20344;-35
2023/01/02 08:42:09;;;;;;;;;;;;;;;18.72;nan;101353.22;5031960;28;19921;-34
2023/01/02 08:44:36;;;;;;;;;;;;;;;18.75;nan;101349.91;5029322;28;19918;-40
2023/01/02 08:47:02;;;;;;;;;;;;;;;18.80;nan;101349.84;5031886;28;19928;-35
2023/01/02 08:49:28;;;;;;;;;;;;;;;18.80;nan;101355.28;5030242;28;19917;-35
2023/01/02 08:51:55;;;;;;;;;;;;;;;18.84;nan;101344.66;5022952;28;21327;-35
2023/01/02 08:54:21;;;;;;;;;;;;;;;18.82;nan;101342.22;5027409;28;19921;-36
2023/01/02 08:56:47;;;;;;;;;;;;;;;18.86;nan;101346.00;5023629;28;19917;-35
2023/01/02 08:59:13;;;;;;;;;;;;;;;18.91;nan;101350.56;5030612;28;20026;-35
2023/01/02 09:01:38;;;;;;;;;;;;;;;18.90;nan;101344.31;5029882;28;20183;-35
2023/01/02 09:04:05;;;;;;;;;;;;;;;18.96;nan;101347.78;5026306;28;19921;-35
2023/01/02 09:06:31;;;;;;;;;;;;;;;18.96;nan;101351.31;5023846;28;20017;-37
2023/01/02 09:08:57;;;;;;;;;;;;;;;19.02;nan;101352.84;5028480;28;19921;-36
2023/01/02 09:11:27;;;;;;;;;;;;;;;19.06;nan;101352.31;5022154;28;20375;-37
2023/01/02 09:13:53;;;;;;;;;;;;;;;19.13;nan;101350.03;5025563;28;19921;-35
2023/01/02 09:16:18;;;;;;;;;;;;;;;19.16;nan;101358.41;5026595;28;20404;-36
2023/01/02 09:18:43;;;;;;;;;;;;;;;19.17;nan;101370.06;5027603;28;20408;-36
2023/01/02 09:21:09;;;;;;;;;;;;;;;19.18;nan;101349.97;5028006;28;19917;-35
2023/01/02 09:23:34;;;;;;;;;;;;;;;19.18;nan;101349.97;5026248;28;20391;-36
2023/01/02 09:26:04;;;;;;;;;;;;;;;19.22;nan;101354.53;5028730;28;19917;-38
2023/01/02 09:28:30;;;;;;;;;;;;;;;19.31;nan;101351.97;5030274;28;19928;-37
2023/01/02 09:30:56;;;;;;;;;;;;;;;19.32;nan;101357.09;5032091;28;20326;-35
2023/01/02 09:33:21;;;;;;;;;;;;;;;19.40;nan;101360.28;5026266;28;20001;-36
2023/01/02 09:35:46;;;;;;;;;;;;;;;19.44;nan;101350.44;5025478;28;20386;-37
2023/01/02 09:38:12;;;;;;;;;;;;;;;19.51;nan;101343.53;5033585;28;19921;-35
2023/01/02 09:40:41;;;;;;;;;;;;;;;19.55;nan;101343.78;5030557;28;19926;-35
2023/01/02 09:43:08;;;;;;;;;;;;;;;19.60;nan;101346.44;5030219;28;20012;-36
2023/01/02 09:45:34;;;;;;;;;;;;;;;19.75;nan;101348.13;5026474;28;20682;-35
2023/01/02 09:47:59;;;;;;;;;;;;;;;19.76;nan;101345.13;5027176;28;19952;-38
2023/01/02 09:50:26;;;;;;;;;;;;;;;19.80;nan;101348.88;5026546;28;19979;-35
2023/01/02 09:52:58;;;;;;;;;;;;;;;19.86;nan;101334.06;5025904;28;19921;-35
2023/01/02 09:55:26;;;;;;;;;;;;;;;19.89;nan;101340.84;5020222;28;19917;-37
2023/01/02 09:58:01;;;;;;;;;;;;;;;19.94;nan;101329.91;5031139;28;20406;-35
2023/01/02 10:00:28;;;;;;;;;;;;;;;20.03;nan;101333.53;5032329;28;19967;-35
2023/01/02 10:03:10;;;;;;;;;;;;;;;20.07;nan;101326.38;5029749;28;19960;-35
2023/01/02 10:05:54;;;;;;;;;;;;;;;20.04;nan;101335.16;5024990;28;19917;-37
2023/01/02 10:08:31;;;;;;;;;;;;;;;20.13;nan;101319.78;5010316;28;20702;-35
2023/01/02 10:11:04;;;;;;;;;;;;;;;20.17;nan;101328.94;5017731;28;20052;-37
2023/01/02 10:13:29;;;;;;;;;;;;;;;20.27;nan;101325.22;5024535;28;19929;-37
2023/01/02 10:15:58;;;;;;;;;;;;;;;20.40;nan;101321.75;5027189;28;20002;-36
2023/01/02 10:18:26;;;;;;;;;;;;;;;20.46;nan;101317.84;5024889;28;19952;-38
2023/01/02 10:21:05;;;;;;;;;;;;;;;20.51;nan;101316.97;5017057;28;20417;-35
2023/01/02 10:23:56;;;;;;;;;;;;;;;20.54;nan;101312.81;5021667;28;19921;-35
2023/01/02 10:26:24;;;;;;;;;;;;;;;20.58;nan;101308.38;5022583;28;20316;-37
2023/01/02 10:28:53;;;;;;;;;;;;;;;20.56;nan;101307.88;5022584;28;19929;-35
2023/01/02 10:31:21;;;;;;;;;;;;;;;20.62;nan;101295.78;5023568;28;19924;-35
2023/01/02 10:33:51;;;;;;;;;;;;;;;20.66;nan;101300.34;5026991;28;19920;-38
2023/01/02 10:36:25;;;;;;;;;;;;;;;20.68;nan;101289.94;5022604;28;21338;-35
2023/01/02 10:38:52;;;;;;;;;;;;;;;20.69;nan;101283.38;5027752;28;19961;-36
2023/01/02 10:41:17;;;;;;;;;;;;;;;20.71;nan;101286.63;5032292;28;20009;-36
2023/01/02 10:43:44;;;;;;;;;;;;;;;20.68;nan;101286.41;5019954;28;20415;-35
2023/01/02 10:46:10;;;;;;;;;;;;;;;20.75;nan;101287.63;5024647;28;19972;-36
2023/01/02 10:48:36;;;;;;;;;;;;;;;20.74;nan;101287.91;5026098;28;20381;-37
2023/01/02 10:51:03;;;;;;;;;;;;;;;20.76;nan;101291.94;5025309;28;20124;-35
2023/01/02 10:53:33;;;;;;;;;;;;;;;20.83;nan;101282.59;5025982;28;19917;-37
2023/01/02 10:56:06;;;;;;;;;;;;;;;20.87;nan;101278.94;5027992;28;19932;-35
2023/01/02 10:58:33;;;;;;;;;;;;;;;20.95;nan;101272.75;5027149;28;19917;-36
2023/01/02 11:01:18;;;;;;;;;;;;;;;20.96;nan;101266.22;5024791;28;20476;-36
2023/01/02 11:04:03;;;;;;;;;;;;;;;21.03;nan;101265.81;5026719;28;20310;-36
2023/01/02 11:06:30;;;;;;;;;;;;;;;20.99;nan;101259.34;5020861;28;19921;-36
2023/01/02 11:08:56;;;;;;;;;;;;;;;21.01;nan;101266.13;5024772;28;19925;-37
2023/01/02 11:11:22;;;;;;;;;;;;;;;21.03;nan;101263.09;5025055;28;19925;-36
2023/01/02 11:13:48;;;;;;;;;;;;;;;21.08;nan;101255.59;5024807;28;19917;-37
2023/01/02 11:16:15;;;;;;;;;;;;;;;21.06;nan;101257.81;5023854;28;20367;-36
2023/01/02 11:18:47;;;;;;;;;;;;;;;21.08;nan;101265.69;5021160;28;19917;-36
2023/01/02 11:21:13;;;;;;;;;;;;;;;21.10;nan;101264.28;5020249;28;20033;-35
2023/01/02 11:23:42;;;;;;;;;;;;;;;21.18;nan;101257.28;5021003;28;20323;-36
2023/01/02 11:26:33;;;;;;;;;;;;;;;21.17;nan;101254.84;5024512;28;20000;-35
2023/01/02 11:29:06;;;;;;;;;;;;;;;21.22;nan;101249.31;5020340;28;20002;-36
2023/01/02 11:31:32;;;;;;;;;;;;;;;21.26;nan;101250.34;5024407;28;19929;-36
2023/01/02 11:34:07;;;;;;;;;;;;;;;21.26;nan;101253.88;5019503;28;19921;-38
2023/01/02 11:36:32;;;;;;;;;;;;;;;21.30;nan;101254.84;5021414;28;19925;-36
2023/01/02 11:38:57;;;;;;;;;;;;;;;21.36;nan;101256.38;5025744;28;20387;-35
2023/01/02 11:44:31;;;;;;;;;;;;;;;21.42;nan;101259.78;5025087;28;20004;-37
2023/01/02 11:46:57;;;;;;;;;;;;;;;21.44;nan;101268.44;5022807;28;19925;-37
2023/01/02 11:49:25;;;;;;;;;;;;;;;21.49;nan;101264.78;5023496;28;20314;-38
2023/01/02 11:51:56;;;;;;;;;;;;;;;21.50;nan;101269.94;5024344;28;19926;-37
2023/01/02 11:54:24;;;;;;;;;;;;;;;21.55;nan;101263.56;5024649;28;19917;-36
2023/01/02 11:56:50;;;;;;;;;;;;;;;21.50;nan;101272.66;5027764;28;20341;-37
2023/01/02 11:59:16;;;;;;;;;;;;;;;21.55;nan;101271.75;5020136;28;19927;-36
2023/01/02 12:01:47;;;;;;;;;;;;;;;21.55;nan;101274.47;5020359;28;19917;-36
2023/01/02 12:04:13;;;;;;;;;;;;;;;21.51;nan;101273.47;5024425;28;19980;-36
2023/01/02 12:06:38;;;;;;;;;;;;;;;21.54;nan;101278.28;5019724;28;20403;-36
2023/01/02 12:09:04;;;;;;;;;;;;;;;21.61;nan;101270.50;5019988;28;20063;-36
2023/01/02 12:11:47;;;;;;;;;;;;;;;21.63;nan;101276.47;5016361;28;19925;-36
2023/01/02 12:14:18;;;;;;;;;;;;;;;21.62;nan;101270.19;5020690;28;19917;-36
2023/01/02 12:16:49;;;;;;;;;;;;;;;21.56;nan;101268.72;5020219;28;19979;-37
2023/01/02 12:19:17;;;;;;;;;;;;;;;21.59;nan;101275.47;5020052;28;19932;-36
2023/01/02 12:21:46;;;;;;;;;;;;;;;21.65;nan;101269.56;5022674;28;19994;-36
2023/01/02 12:24:30;;;;;;;;;;;;;;;21.67;nan;101270.06;5020904;28;19931;-36
2023/01/02 12:26:55;;;;;;;;;;;;;;;21.69;nan;101262.38;5022551;28;19983;-38
2023/01/02 12:29:32;;;;;;;;;;;;;;;21.70;nan;101288.53;5020320;28;19929;-36
2023/01/02 12:32:05;;;;;;;;;;;;;;;21.69;nan;101278.75;5019116;28;20051;-36
2023/01/02 12:34:40;;;;;;;;;;;;;;;21.68;nan;101273.59;5016989;28;20095;-36
2023/01/02 12:37:17;;;;;;;;;;;;;;;21.72;nan;101277.31;5014252;28;20655;-37
2023/01/02 12:39:58;;;;;;;;;;;;;;;21.73;nan;101276.22;5022629;28;21120;-37
2023/01/02 12:42:29;;;;;;;;;;;;;;;21.73;nan;101270.78;5024352;28;19928;-36
2023/01/02 12:44:58;;;;;;;;;;;;;;;21.71;nan;101262.88;5022896;28;19921;-36
2023/01/02 12:47:53;;;;;;;;;;;;;;;21.70;nan;101263.97;5023806;28;19925;-36
2023/01/02 12:50:21;;;;;;;;;;;;;;;21.63;nan;101268.28;5022101;28;20062;-36
2023/01/02 12:53:02;;;;;;;;;;;;;;;21.58;nan;101269.22;5023632;28;19921;-37
2023/01/02 12:55:27;;;;;;;;;;;;;;;21.56;nan;101270.63;5021242;28;20015;-36
2023/01/02 12:58:06;;;;;;;;;;;;;;;21.53;nan;101273.97;5019343;28;21107;-36
2023/01/02 13:00:34;;;;;;;;;;;;;;;21.54;nan;101270.91;5019830;28;20873;-36
2023/01/02 13:03:18;;;;;;;;;;;;;;;21.51;nan;101271.53;5022414;28;19964;-38
2023/01/02 13:05:51;;;;;;;;;;;;;;;21.50;nan;101269.94;5020294;28;20424;-35
2023/01/02 13:08:24;;;;;;;;;;;;;;;21.52;nan;101281.34;5013674;28;20390;-38